Ghotki Weather



Ghotki's Current Weather

Temprature 16o mist

mist

Rain: 0 %

Min Temprature16o
Max Temprature16o
Humidity82
Wind Speed2.1 m/h
Sun Rise07:04:24
Sun Set17:28:10
Current Time: 12-Dec-2019 01:27:57
Lat/Lon: 28.01, 69.32




Ghotki's Geo Location



Ghotki's Weather Forecast

Time Overall Temp Min Temp Max Temp Humidity Wind Speed Rain
12-Dec-2019 (Thu)
02:00:00 overcast clouds 13.920 13.920 17.730 53 6.86 m/h 0 %
05:00:00 overcast clouds 12.750 12.750 15.610 68 7.67 m/h 0 %
08:00:00 overcast clouds 12.690 12.690 14.590 68 6.27 m/h 0 %
11:00:00 overcast clouds 14.020 14.020 14.970 73 7.39 m/h 0 %
14:00:00 overcast clouds 16.110 16.110 16.110 64 5.72 m/h 0 %
17:00:00 broken clouds 16.720 16.720 16.720 54 4.31 m/h 0 %
20:00:00 clear sky 13.830 13.830 13.830 66 2.18 m/h 0 %
23:00:00 clear sky 12.790 12.790 12.790 74 2.7 m/h 0 %
13-Dec-2019 (Fri)
02:00:00 clear sky 11.400 11.400 11.400 75 2.24 m/h 0 %
05:00:00 clear sky 10.320 10.320 10.320 81 1.97 m/h 0 %
08:00:00 clear sky 11.950 11.950 11.950 77 1.59 m/h 0 %
11:00:00 clear sky 18.250 18.250 18.250 48 0.78 m/h 0 %
14:00:00 clear sky 21.920 21.920 21.920 31 3.19 m/h 0 %
17:00:00 clear sky 20.250 20.250 20.250 34 2.24 m/h 0 %
20:00:00 clear sky 15.150 15.150 15.150 48 1.23 m/h 0 %
23:00:00 clear sky 14.810 14.810 14.810 50 1.69 m/h 0 %
14-Dec-2019 (Sat)
02:00:00 clear sky 13.740 13.740 13.740 56 1.21 m/h 0 %
05:00:00 clear sky 12.460 12.460 12.460 60 0.44 m/h 0 %
08:00:00 clear sky 14.890 14.890 14.890 52 0.78 m/h 0 %
11:00:00 clear sky 21.360 21.360 21.360 33 2 m/h 0 %
14:00:00 clear sky 23.580 23.580 23.580 27 2.93 m/h 0 %
17:00:00 clear sky 21.470 21.470 21.470 30 3.26 m/h 0 %
20:00:00 overcast clouds 18.580 18.580 18.580 33 3.39 m/h 0 %
23:00:00 overcast clouds 16.590 16.590 16.590 38 3.53 m/h 0 %
15-Dec-2019 (Sun)
02:00:00 overcast clouds 17.010 17.010 17.010 43 3.64 m/h 0 %
05:00:00 broken clouds 15.710 15.710 15.710 50 4.01 m/h 0 %
08:00:00 broken clouds 15.590 15.590 15.590 51 3.95 m/h 0 %
11:00:00 overcast clouds 20.220 20.220 20.220 37 3.36 m/h 0 %
14:00:00 scattered clouds 22.950 22.950 22.950 28 2.57 m/h 0 %
17:00:00 scattered clouds 21.620 21.620 21.620 30 2.36 m/h 0 %
20:00:00 clear sky 17.050 17.050 17.050 42 2.85 m/h 0 %
23:00:00 clear sky 16.280 16.280 16.280 46 2.66 m/h 0 %
16-Dec-2019 (Mon)
02:00:00 clear sky 15.000 15.000 15.000 51 2.17 m/h 0 %
05:00:00 clear sky 13.620 13.620 13.620 55 1.58 m/h 0 %
08:00:00 clear sky 15.380 15.380 15.380 49 1.63 m/h 0 %
11:00:00 clear sky 20.860 20.860 20.860 34 1.79 m/h 0 %
14:00:00 clear sky 22.920 22.920 22.920 29 1.78 m/h 0 %
17:00:00 clear sky 21.830 21.830 21.830 30 3.46 m/h 0 %
20:00:00 clear sky 17.670 17.670 17.670 41 2.55 m/h 0 %
23:00:00 clear sky 16.170 16.170 16.170 44 2.05 m/h 0 %

Famous Cities (61)